Aviation Digital Data Service (ADDS)

Output produced by METARs form (1734 UTC 27 May 2017)
found at http://www.aviationweather.gov/adds/metars/
 
TAF MSLP 271525Z 2718/2818 21008KT 9999 SCT023 FEW037CB TX33/2718Z TN24/2812Z 
     TEMPO 2801/2804 09010KT 5000 TSRA BKN023 SCT033CB 
     FM280500 04005KT 9999 BKN060
       
TAF MSSS 271525Z 2718/2818 16006KT 9999 BKN020 FEW037CB TX27/2719Z TN21/2812Z 
     TEMPO 2800/2803 36008KT 4000 TSRA BKN017 SCT033CB 
     FM280300 8000 RA SCT013 BKN040 
     FM280600 9999 FEW017 BKN043